找回密码
 立即注册

扫一扫,访问微社区

QQ登录

只需一步,快速开始

查看: 154|回复: 6

[原创游戏截图] 从家乡出发的环球之旅第二十二站

[复制链接]
 楼主| 发表于 4 天前 | 显示全部楼层 |阅读模式
总贴:https://bbs.sinofsx.com/forum.ph ... 1&extra=#pid1688126
离开匈牙利,出发前往俄罗斯叶卡捷琳堡USSS,那么第二十二站开始!
第二十二站:LHSM-USSS
机型:A321NEOwithLEAP-A
航路:SUNOR DCT LONLA Q560 KOKUP P26 PNK P727 BUSIN L999 AGLAN M864 INKEB L94 NAMER T765 GEMKI L94 LOMBI航程1850NM
气象报文:LHSM 220450Z 13006KT 5000 BR NCD 03/02 Q1026
使用跑道16,离场程序SUNOR 1D
巡航高:FL350
气象报文USSS 221000Z VRB01MPS 9000 -SN BKN033 M19/M25 Q1019
进场程序:LOMBI 6WILS-W进近跑道26R

xE的雪是真的大,但机模的适配好像没做好,雨刮器刮着没用...

上高中

上高中

上高侧视角

上高侧视角

巡航中

巡航中

下高中

下高中

穿云前

穿云前

断AP

断AP

接地

接地

到位

到位

经典乘客视角

经典乘客视角
发表于 4 天前 | 显示全部楼层
这次砸了耶(bushi 高产啊
回复 支持 反对

使用道具 举报

发表于 4 天前 | 显示全部楼层
图3太真啦!!!
回复 支持 反对

使用道具 举报

 楼主| 发表于 4 天前 | 显示全部楼层
Xujiayao 发表于 2021-2-22 22:39
这次砸了耶(bushi 高产啊

这个叫结实落地(手动滑稽)
回复 支持 反对

使用道具 举报

 楼主| 发表于 4 天前 | 显示全部楼层
SINO3630 发表于 2021-2-22 22:47
图3太真啦!!!

xE还是挺香的
回复 支持 反对

使用道具 举报

发表于 3 天前 | 显示全部楼层
zymisalso 发表于 2021-2-22 23:02
这个叫结实落地(手动滑稽)

结实到要扣分
回复 支持 反对

使用道具 举报

发表于 3 天前 | 显示全部楼层
这雪景,i了i了,不知道我的P3D怎么优化才能达到这种效果
回复 支持 反对

使用道具 举报

您需要登录后才可以回帖 登录 | 立即注册

本版积分规则

关闭

论坛公告上一条 /2 下一条


上个主题 下个主题 快速回复 返回列表
快速回复 返回顶部 返回列表